sensor_id;sensor_type;location;lat;lon;timestamp;temperature;humidity
26964;DHT22;14521;48.148;-1.656;2023-01-01T00:00:12;18.80;99.90
26964;DHT22;14521;48.148;-1.656;2023-01-01T00:03:35;18.80;99.90
26964;DHT22;14521;48.148;-1.656;2023-01-01T00:06:57;18.80;99.90
26964;DHT22;14521;48.148;-1.656;2023-01-01T00:10:19;18.90;99.90
26964;DHT22;14521;48.148;-1.656;2023-01-01T00:13:51;18.90;99.90
26964;DHT22;14521;48.148;-1.656;2023-01-01T00:17:13;18.90;99.90
26964;DHT22;14521;48.148;-1.656;2023-01-01T00:20:35;18.80;99.90
26964;DHT22;14521;48.148;-1.656;2023-01-01T00:23:57;18.90;99.90
26964;DHT22;14521;48.148;-1.656;2023-01-01T00:27:19;18.80;99.90
26964;DHT22;14521;48.148;-1.656;2023-01-01T00:30:41;18.80;99.90
26964;DHT22;14521;48.148;-1.656;2023-01-01T00:34:04;18.90;99.90
26964;DHT22;14521;48.148;-1.656;2023-01-01T00:37:26;18.90;99.90
26964;DHT22;14521;48.148;-1.656;2023-01-01T00:40:48;18.80;99.90
26964;DHT22;14521;48.148;-1.656;2023-01-01T00:44:11;18.80;99.90
26964;DHT22;14521;48.148;-1.656;2023-01-01T00:47:33;18.80;99.90
26964;DHT22;14521;48.148;-1.656;2023-01-01T00:50:55;18.80;99.90
26964;DHT22;14521;48.148;-1.656;2023-01-01T00:54:17;18.80;99.90
26964;DHT22;14521;48.148;-1.656;2023-01-01T00:57:40;18.80;99.90
26964;DHT22;14521;48.148;-1.656;2023-01-01T01:01:02;18.80;99.90
26964;DHT22;14521;48.148;-1.656;2023-01-01T01:04:24;18.80;99.90
26964;DHT22;14521;48.148;-1.656;2023-01-01T01:07:47;18.80;99.90
26964;DHT22;14521;48.148;-1.656;2023-01-01T01:14:34;18.80;99.70
26964;DHT22;14521;48.148;-1.656;2023-01-01T01:17:56;18.80;99.90
26964;DHT22;14521;48.148;-1.656;2023-01-01T01:21:19;18.80;99.70
26964;DHT22;14521;48.148;-1.656;2023-01-01T01:24:42;18.80;99.60
26964;DHT22;14521;48.148;-1.656;2023-01-01T01:28:04;18.80;99.30
26964;DHT22;14521;48.148;-1.656;2023-01-01T01:31:27;18.80;99.50
26964;DHT22;14521;48.148;-1.656;2023-01-01T01:34:50;18.80;99.70
26964;DHT22;14521;48.148;-1.656;2023-01-01T01:38:12;18.80;99.60
26964;DHT22;14521;48.148;-1.656;2023-01-01T01:41:34;18.80;99.60
26964;DHT22;14521;48.148;-1.656;2023-01-01T01:48:18;18.80;99.40
26964;DHT22;14521;48.148;-1.656;2023-01-01T01:51:41;18.80;99.60
26964;DHT22;14521;48.148;-1.656;2023-01-01T01:55:04;18.80;99.70
26964;DHT22;14521;48.148;-1.656;2023-01-01T01:58:27;18.80;99.70
26964;DHT22;14521;48.148;-1.656;2023-01-01T02:01:50;18.80;99.60
26964;DHT22;14521;48.148;-1.656;2023-01-01T02:05:13;18.80;99.80
26964;DHT22;14521;48.148;-1.656;2023-01-01T02:08:35;18.80;99.60
26964;DHT22;14521;48.148;-1.656;2023-01-01T02:11:58;18.80;99.40
26964;DHT22;14521;48.148;-1.656;2023-01-01T02:15:20;18.70;99.50
26964;DHT22;14521;48.148;-1.656;2023-01-01T02:33:13;18.80;99.20
26964;DHT22;14521;48.148;-1.656;2023-01-01T02:36:38;18.80;99.10
26964;DHT22;14521;48.148;-1.656;2023-01-01T02:40:02;18.80;99.10
26964;DHT22;14521;48.148;-1.656;2023-01-01T02:43:24;18.80;99.10
26964;DHT22;14521;48.148;-1.656;2023-01-01T02:46:47;18.80;99.20
26964;DHT22;14521;48.148;-1.656;2023-01-01T02:53:35;18.70;99.40
26964;DHT22;14521;48.148;-1.656;2023-01-01T02:57:06;18.80;99.00
26964;DHT22;14521;48.148;-1.656;2023-01-01T03:00:30;18.80;99.00
26964;DHT22;14521;48.148;-1.656;2023-01-01T03:04:05;18.80;99.10
26964;DHT22;14521;48.148;-1.656;2023-01-01T03:10:57;18.70;99.40
26964;DHT22;14521;48.148;-1.656;2023-01-01T03:21:31;18.70;99.40
26964;DHT22;14521;48.148;-1.656;2023-01-01T03:24:55;18.70;99.60
26964;DHT22;14521;48.148;-1.656;2023-01-01T03:28:29;18.70;99.50
26964;DHT22;14521;48.148;-1.656;2023-01-01T03:31:54;18.70;99.60
26964;DHT22;14521;48.148;-1.656;2023-01-01T03:35:18;18.70;99.60
26964;DHT22;14521;48.148;-1.656;2023-01-01T03:38:42;18.70;99.90
26964;DHT22;14521;48.148;-1.656;2023-01-01T03:42:09;18.70;99.80
26964;DHT22;14521;48.148;-1.656;2023-01-01T03:45:32;18.70;99.80
26964;DHT22;14521;48.148;-1.656;2023-01-01T03:48:56;18.70;99.80
26964;DHT22;14521;48.148;-1.656;2023-01-01T03:52:29;18.70;99.80
26964;DHT22;14521;48.148;-1.656;2023-01-01T03:56:29;18.70;99.90
26964;DHT22;14521;48.148;-1.656;2023-01-01T03:59:44;18.70;99.90
26964;DHT22;14521;48.148;-1.656;2023-01-01T04:06:32;18.70;99.90
26964;DHT22;14521;48.148;-1.656;2023-01-01T04:09:54;18.70;99.90
26964;DHT22;14521;48.148;-1.656;2023-01-01T04:13:17;18.70;99.90
26964;DHT22;14521;48.148;-1.656;2023-01-01T04:16:40;18.70;99.90
26964;DHT22;14521;48.148;-1.656;2023-01-01T04:20:02;18.70;99.80
26964;DHT22;14521;48.148;-1.656;2023-01-01T04:23:32;18.60;99.90
26964;DHT22;14521;48.148;-1.656;2023-01-01T04:26:54;18.70;99.90
26964;DHT22;14521;48.148;-1.656;2023-01-01T04:30:17;18.70;99.90
26964;DHT22;14521;48.148;-1.656;2023-01-01T04:33:39;18.70;99.90
26964;DHT22;14521;48.148;-1.656;2023-01-01T04:37:01;18.70;99.90
26964;DHT22;14521;48.148;-1.656;2023-01-01T04:40:30;18.70;99.90
26964;DHT22;14521;48.148;-1.656;2023-01-01T04:43:52;18.70;99.90
26964;DHT22;14521;48.148;-1.656;2023-01-01T04:47:14;18.70;99.90
26964;DHT22;14521;48.148;-1.656;2023-01-01T04:50:37;18.60;99.90
26964;DHT22;14521;48.148;-1.656;2023-01-01T04:53:59;18.70;99.90
26964;DHT22;14521;48.148;-1.656;2023-01-01T04:57:23;18.70;99.80
26964;DHT22;14521;48.148;-1.656;2023-01-01T05:00:48;18.60;99.80
26964;DHT22;14521;48.148;-1.656;2023-01-01T05:04:12;18.70;99.90
26964;DHT22;14521;48.148;-1.656;2023-01-01T05:07:34;18.70;99.90
26964;DHT22;14521;48.148;-1.656;2023-01-01T05:11:03;18.70;99.90
26964;DHT22;14521;48.148;-1.656;2023-01-01T05:14:27;18.60;99.90
26964;DHT22;14521;48.148;-1.656;2023-01-01T05:17:49;18.60;99.90
26964;DHT22;14521;48.148;-1.656;2023-01-01T05:21:16;18.60;99.90
26964;DHT22;14521;48.148;-1.656;2023-01-01T05:24:38;18.70;99.90
26964;DHT22;14521;48.148;-1.656;2023-01-01T05:28:00;18.60;99.90
26964;DHT22;14521;48.148;-1.656;2023-01-01T05:31:23;18.60;99.90
26964;DHT22;14521;48.148;-1.656;2023-01-01T05:34:46;18.70;99.90
26964;DHT22;14521;48.148;-1.656;2023-01-01T05:38:08;18.70;99.90
26964;DHT22;14521;48.148;-1.656;2023-01-01T05:41:31;18.70;99.90
26964;DHT22;14521;48.148;-1.656;2023-01-01T05:44:57;18.70;99.90
26964;DHT22;14521;48.148;-1.656;2023-01-01T05:48:19;18.70;99.90
26964;DHT22;14521;48.148;-1.656;2023-01-01T05:51:41;18.80;99.90
26964;DHT22;14521;48.148;-1.656;2023-01-01T05:55:03;18.80;99.90
26964;DHT22;14521;48.148;-1.656;2023-01-01T05:58:26;18.80;99.90
26964;DHT22;14521;48.148;-1.656;2023-01-01T06:01:48;18.80;99.90
26964;DHT22;14521;48.148;-1.656;2023-01-01T06:05:11;18.80;99.90
26964;DHT22;14521;48.148;-1.656;2023-01-01T06:08:33;18.90;99.90
26964;DHT22;14521;48.148;-1.656;2023-01-01T06:11:55;18.90;99.90
26964;DHT22;14521;48.148;-1.656;2023-01-01T06:15:17;18.90;99.70
26964;DHT22;14521;48.148;-1.656;2023-01-01T06:18:39;18.90;99.70
26964;DHT22;14521;48.148;-1.656;2023-01-01T06:22:02;19.00;99.90
26964;DHT22;14521;48.148;-1.656;2023-01-01T06:25:24;18.90;99.80
26964;DHT22;14521;48.148;-1.656;2023-01-01T06:28:46;18.90;99.60
26964;DHT22;14521;48.148;-1.656;2023-01-01T06:32:09;18.90;99.80
26964;DHT22;14521;48.148;-1.656;2023-01-01T06:35:31;19.00;99.90
26964;DHT22;14521;48.148;-1.656;2023-01-01T06:38:55;19.00;99.90
26964;DHT22;14521;48.148;-1.656;2023-01-01T06:42:17;19.00;99.90
26964;DHT22;14521;48.148;-1.656;2023-01-01T06:45:39;19.00;99.90
26964;DHT22;14521;48.148;-1.656;2023-01-01T06:49:06;19.00;99.80
26964;DHT22;14521;48.148;-1.656;2023-01-01T06:52:28;19.00;99.70
26964;DHT22;14521;48.148;-1.656;2023-01-01T06:55:51;19.00;99.70
26964;DHT22;14521;48.148;-1.656;2023-01-01T06:59:18;18.90;99.70
26964;DHT22;14521;48.148;-1.656;2023-01-01T07:02:40;19.00;99.80
26964;DHT22;14521;48.148;-1.656;2023-01-01T07:06:03;19.00;99.60
26964;DHT22;14521;48.148;-1.656;2023-01-01T07:09:25;19.00;99.60
26964;DHT22;14521;48.148;-1.656;2023-01-01T07:12:50;19.00;99.30
26964;DHT22;14521;48.148;-1.656;2023-01-01T07:16:12;19.00;99.30
26964;DHT22;14521;48.148;-1.656;2023-01-01T07:19:35;19.00;99.60
26964;DHT22;14521;48.148;-1.656;2023-01-01T07:22:57;19.00;99.20
26964;DHT22;14521;48.148;-1.656;2023-01-01T07:26:19;19.00;99.40
26964;DHT22;14521;48.148;-1.656;2023-01-01T07:29:41;19.00;99.70
26964;DHT22;14521;48.148;-1.656;2023-01-01T07:33:04;19.00;99.30
26964;DHT22;14521;48.148;-1.656;2023-01-01T07:36:26;19.00;99.40
26964;DHT22;14521;48.148;-1.656;2023-01-01T07:39:48;18.90;99.10
26964;DHT22;14521;48.148;-1.656;2023-01-01T07:43:11;18.90;99.30
26964;DHT22;14521;48.148;-1.656;2023-01-01T07:46:34;18.90;99.10
26964;DHT22;14521;48.148;-1.656;2023-01-01T07:49:57;18.90;99.10
26964;DHT22;14521;48.148;-1.656;2023-01-01T07:53:19;18.90;99.10
26964;DHT22;14521;48.148;-1.656;2023-01-01T07:56:41;18.90;99.00
26964;DHT22;14521;48.148;-1.656;2023-01-01T08:00:04;18.90;99.00
26964;DHT22;14521;48.148;-1.656;2023-01-01T08:03:33;18.90;98.90
26964;DHT22;14521;48.148;-1.656;2023-01-01T08:06:55;18.90;99.20
26964;DHT22;14521;48.148;-1.656;2023-01-01T08:10:18;18.90;98.90
26964;DHT22;14521;48.148;-1.656;2023-01-01T08:13:41;18.90;99.10
26964;DHT22;14521;48.148;-1.656;2023-01-01T08:17:03;18.90;99.10
26964;DHT22;14521;48.148;-1.656;2023-01-01T08:20:26;18.90;98.80
26964;DHT22;14521;48.148;-1.656;2023-01-01T08:23:49;18.90;98.90
26964;DHT22;14521;48.148;-1.656;2023-01-01T08:27:12;18.80;98.90
26964;DHT22;14521;48.148;-1.656;2023-01-01T08:30:35;18.80;98.90
26964;DHT22;14521;48.148;-1.656;2023-01-01T08:33:57;18.90;99.00
26964;DHT22;14521;48.148;-1.656;2023-01-01T08:37:19;18.90;98.80
26964;DHT22;14521;48.148;-1.656;2023-01-01T08:40:42;18.90;98.70
26964;DHT22;14521;48.148;-1.656;2023-01-01T08:44:04;18.90;98.80
26964;DHT22;14521;48.148;-1.656;2023-01-01T08:47:27;18.80;98.70
26964;DHT22;14521;48.148;-1.656;2023-01-01T08:50:56;18.80;98.70
26964;DHT22;14521;48.148;-1.656;2023-01-01T08:54:21;18.90;98.80
26964;DHT22;14521;48.148;-1.656;2023-01-01T08:57:43;18.80;98.70
26964;DHT22;14521;48.148;-1.656;2023-01-01T09:01:05;18.80;98.90
26964;DHT22;14521;48.148;-1.656;2023-01-01T09:04:27;18.80;98.90
26964;DHT22;14521;48.148;-1.656;2023-01-01T09:07:50;18.90;98.90
26964;DHT22;14521;48.148;-1.656;2023-01-01T09:11:20;18.80;98.70
26964;DHT22;14521;48.148;-1.656;2023-01-01T09:14:45;18.80;99.00
26964;DHT22;14521;48.148;-1.656;2023-01-01T09:18:08;18.80;99.00
26964;DHT22;14521;48.148;-1.656;2023-01-01T09:21:30;18.90;98.80
26964;DHT22;14521;48.148;-1.656;2023-01-01T09:24:53;18.80;98.80
26964;DHT22;14521;48.148;-1.656;2023-01-01T09:28:15;18.80;98.90
26964;DHT22;14521;48.148;-1.656;2023-01-01T09:31:47;18.80;98.70
26964;DHT22;14521;48.148;-1.656;2023-01-01T09:35:09;18.80;98.70
26964;DHT22;14521;48.148;-1.656;2023-01-01T09:38:31;18.80;98.80
26964;DHT22;14521;48.148;-1.656;2023-01-01T09:42:01;18.80;98.60
26964;DHT22;14521;48.148;-1.656;2023-01-01T09:45:27;18.80;98.50
26964;DHT22;14521;48.148;-1.656;2023-01-01T09:48:51;18.80;98.50
26964;DHT22;14521;48.148;-1.656;2023-01-01T09:52:17;18.80;98.50
26964;DHT22;14521;48.148;-1.656;2023-01-01T09:55:42;18.80;98.40
26964;DHT22;14521;48.148;-1.656;2023-01-01T09:59:11;18.80;98.50
26964;DHT22;14521;48.148;-1.656;2023-01-01T10:09:58;18.80;98.50
26964;DHT22;14521;48.148;-1.656;2023-01-01T10:16:47;18.80;98.50
26964;DHT22;14521;48.148;-1.656;2023-01-01T10:20:14;18.80;98.50
26964;DHT22;14521;48.148;-1.656;2023-01-01T10:23:39;18.80;98.50
26964;DHT22;14521;48.148;-1.656;2023-01-01T10:27:03;18.80;98.50
26964;DHT22;14521;48.148;-1.656;2023-01-01T10:30:26;18.70;98.50
26964;DHT22;14521;48.148;-1.656;2023-01-01T10:33:48;18.80;98.50
26964;DHT22;14521;48.148;-1.656;2023-01-01T10:37:11;18.70;98.50
26964;DHT22;14521;48.148;-1.656;2023-01-01T10:40:34;18.70;98.50
26964;DHT22;14521;48.148;-1.656;2023-01-01T10:43:56;18.70;98.50
26964;DHT22;14521;48.148;-1.656;2023-01-01T10:47:28;18.70;98.50
26964;DHT22;14521;48.148;-1.656;2023-01-01T10:50:52;18.70;98.50
26964;DHT22;14521;48.148;-1.656;2023-01-01T10:54:31;18.70;98.50
26964;DHT22;14521;48.148;-1.656;2023-01-01T10:57:55;18.70;98.50
26964;DHT22;14521;48.148;-1.656;2023-01-01T11:04:41;18.70;98.60
26964;DHT22;14521;48.148;-1.656;2023-01-01T11:08:13;18.70;98.60
26964;DHT22;14521;48.148;-1.656;2023-01-01T11:14:58;18.70;98.60
26964;DHT22;14521;48.148;-1.656;2023-01-01T11:18:21;18.70;98.60
26964;DHT22;14521;48.148;-1.656;2023-01-01T11:21:47;18.70;98.60
26964;DHT22;14521;48.148;-1.656;2023-01-01T11:25:20;18.70;98.60
26964;DHT22;14521;48.148;-1.656;2023-01-01T11:29:44;18.70;98.60
26964;DHT22;14521;48.148;-1.656;2023-01-01T11:32:34;18.70;98.60
26964;DHT22;14521;48.148;-1.656;2023-01-01T11:35:57;18.70;98.60
26964;DHT22;14521;48.148;-1.656;2023-01-01T11:39:25;18.70;98.60
26964;DHT22;14521;48.148;-1.656;2023-01-01T11:42:49;18.70;98.60
26964;DHT22;14521;48.148;-1.656;2023-01-01T11:46:22;18.70;98.70
26964;DHT22;14521;48.148;-1.656;2023-01-01T11:49:45;18.70;98.60
26964;DHT22;14521;48.148;-1.656;2023-01-01T11:56:45;18.70;98.70
26964;DHT22;14521;48.148;-1.656;2023-01-01T12:00:11;18.60;98.70
26964;DHT22;14521;48.148;-1.656;2023-01-01T12:03:44;18.60;98.60
26964;DHT22;14521;48.148;-1.656;2023-01-01T12:07:10;18.60;98.70
26964;DHT22;14521;48.148;-1.656;2023-01-01T12:10:38;18.60;98.70
26964;DHT22;14521;48.148;-1.656;2023-01-01T12:21:25;18.60;98.80
26964;DHT22;14521;48.148;-1.656;2023-01-01T12:24:49;18.60;98.90
26964;DHT22;14521;48.148;-1.656;2023-01-01T12:41:58;18.60;98.90
26964;DHT22;14521;48.148;-1.656;2023-01-01T12:45:32;18.60;98.90
26964;DHT22;14521;48.148;-1.656;2023-01-01T12:56:27;18.60;98.90
26964;DHT22;14521;48.148;-1.656;2023-01-01T12:59:52;18.60;98.90
26964;DHT22;14521;48.148;-1.656;2023-01-01T13:03:20;18.60;98.90
26964;DHT22;14521;48.148;-1.656;2023-01-01T13:06:46;18.60;99.00
26964;DHT22;14521;48.148;-1.656;2023-01-01T13:10:22;18.50;99.00
26964;DHT22;14521;48.148;-1.656;2023-01-01T13:13:46;18.60;99.10
26964;DHT22;14521;48.148;-1.656;2023-01-01T13:17:18;18.60;99.20
26964;DHT22;14521;48.148;-1.656;2023-01-01T13:20:45;18.50;99.30
26964;DHT22;14521;48.148;-1.656;2023-01-01T13:24:23;18.50;99.60
26964;DHT22;14521;48.148;-1.656;2023-01-01T13:35:13;18.60;99.20
26964;DHT22;14521;48.148;-1.656;2023-01-01T13:42:20;18.60;99.50
26964;DHT22;14521;48.148;-1.656;2023-01-01T13:45:46;18.50;99.40
26964;DHT22;14521;48.148;-1.656;2023-01-01T13:53:11;18.60;99.90
26964;DHT22;14521;48.148;-1.656;2023-01-01T14:00:23;18.70;99.90
26964;DHT22;14521;48.148;-1.656;2023-01-01T14:03:47;18.70;99.90
26964;DHT22;14521;48.148;-1.656;2023-01-01T14:07:16;18.70;99.90
26964;DHT22;14521;48.148;-1.656;2023-01-01T14:11:00;18.70;99.90
26964;DHT22;14521;48.148;-1.656;2023-01-01T14:14:23;18.60;99.90
26964;DHT22;14521;48.148;-1.656;2023-01-01T14:17:46;18.60;99.90
26964;DHT22;14521;48.148;-1.656;2023-01-01T14:21:12;18.50;99.90
26964;DHT22;14521;48.148;-1.656;2023-01-01T14:24:39;18.50;99.90
26964;DHT22;14521;48.148;-1.656;2023-01-01T14:28:03;18.50;99.90
26964;DHT22;14521;48.148;-1.656;2023-01-01T14:31:29;18.50;99.90
26964;DHT22;14521;48.148;-1.656;2023-01-01T14:34:59;18.50;99.90
26964;DHT22;14521;48.148;-1.656;2023-01-01T14:38:26;18.50;99.90
26964;DHT22;14521;48.148;-1.656;2023-01-01T14:41:48;18.40;99.90
26964;DHT22;14521;48.148;-1.656;2023-01-01T14:45:14;18.40;99.90
26964;DHT22;14521;48.148;-1.656;2023-01-01T14:48:36;18.40;99.90
26964;DHT22;14521;48.148;-1.656;2023-01-01T14:51:59;18.40;99.90
26964;DHT22;14521;48.148;-1.656;2023-01-01T14:55:22;18.50;99.90
26964;DHT22;14521;48.148;-1.656;2023-01-01T14:58:46;18.50;99.90
26964;DHT22;14521;48.148;-1.656;2023-01-01T15:02:13;18.50;99.90
26964;DHT22;14521;48.148;-1.656;2023-01-01T15:05:36;18.40;99.90
26964;DHT22;14521;48.148;-1.656;2023-01-01T15:08:58;18.50;99.90
26964;DHT22;14521;48.148;-1.656;2023-01-01T15:12:21;18.50;99.90
26964;DHT22;14521;48.148;-1.656;2023-01-01T15:15:45;18.50;99.90
26964;DHT22;14521;48.148;-1.656;2023-01-01T15:19:17;18.50;99.90
26964;DHT22;14521;48.148;-1.656;2023-01-01T15:22:40;18.50;99.90
26964;DHT22;14521;48.148;-1.656;2023-01-01T15:26:06;18.50;99.90
26964;DHT22;14521;48.148;-1.656;2023-01-01T15:32:50;18.40;99.90
26964;DHT22;14521;48.148;-1.656;2023-01-01T15:36:13;18.40;99.90
26964;DHT22;14521;48.148;-1.656;2023-01-01T15:39:50;18.40;99.90
26964;DHT22;14521;48.148;-1.656;2023-01-01T15:43:14;18.40;99.90
26964;DHT22;14521;48.148;-1.656;2023-01-01T15:46:43;18.40;99.90
26964;DHT22;14521;48.148;-1.656;2023-01-01T15:50:09;18.40;99.90
26964;DHT22;14521;48.148;-1.656;2023-01-01T15:53:38;18.40;99.90
26964;DHT22;14521;48.148;-1.656;2023-01-01T15:57:13;18.40;99.90
26964;DHT22;14521;48.148;-1.656;2023-01-01T16:00:37;18.40;99.90
26964;DHT22;14521;48.148;-1.656;2023-01-01T16:04:06;18.40;99.90
26964;DHT22;14521;48.148;-1.656;2023-01-01T16:07:28;18.40;99.90
26964;DHT22;14521;48.148;-1.656;2023-01-01T16:10:51;18.40;99.90
26964;DHT22;14521;48.148;-1.656;2023-01-01T16:14:13;18.40;99.90
26964;DHT22;14521;48.148;-1.656;2023-01-01T16:17:35;18.40;99.90
26964;DHT22;14521;48.148;-1.656;2023-01-01T16:20:57;18.40;99.90
26964;DHT22;14521;48.148;-1.656;2023-01-01T16:24:20;18.40;99.90
26964;DHT22;14521;48.148;-1.656;2023-01-01T16:27:42;18.40;99.90
26964;DHT22;14521;48.148;-1.656;2023-01-01T16:31:04;18.40;99.90
26964;DHT22;14521;48.148;-1.656;2023-01-01T16:34:26;18.40;99.90
26964;DHT22;14521;48.148;-1.656;2023-01-01T16:37:49;18.40;99.90
26964;DHT22;14521;48.148;-1.656;2023-01-01T16:41:12;18.40;99.90
26964;DHT22;14521;48.148;-1.656;2023-01-01T16:44:34;18.40;99.90
26964;DHT22;14521;48.148;-1.656;2023-01-01T16:47:59;18.40;99.90
26964;DHT22;14521;48.148;-1.656;2023-01-01T16:51:23;18.40;99.90
26964;DHT22;14521;48.148;-1.656;2023-01-01T16:54:45;18.40;99.90
26964;DHT22;14521;48.148;-1.656;2023-01-01T16:58:07;18.40;99.90
26964;DHT22;14521;48.148;-1.656;2023-01-01T17:01:49;18.40;99.90
26964;DHT22;14521;48.148;-1.656;2023-01-01T17:05:11;18.40;99.90
26964;DHT22;14521;48.148;-1.656;2023-01-01T17:08:34;18.40;99.90
26964;DHT22;14521;48.148;-1.656;2023-01-01T17:11:57;18.40;99.90
26964;DHT22;14521;48.148;-1.656;2023-01-01T17:15:19;18.40;99.90
26964;DHT22;14521;48.148;-1.656;2023-01-01T17:18:42;18.50;99.90
26964;DHT22;14521;48.148;-1.656;2023-01-01T17:22:12;18.50;99.90
26964;DHT22;14521;48.148;-1.656;2023-01-01T17:25:35;18.50;99.90
26964;DHT22;14521;48.148;-1.656;2023-01-01T17:28:59;18.50;99.90
26964;DHT22;14521;48.148;-1.656;2023-01-01T17:32:22;18.50;99.90
26964;DHT22;14521;48.148;-1.656;2023-01-01T17:35:44;18.50;99.90
26964;DHT22;14521;48.148;-1.656;2023-01-01T17:39:08;18.50;99.90
26964;DHT22;14521;48.148;-1.656;2023-01-01T17:42:33;18.60;99.90
26964;DHT22;14521;48.148;-1.656;2023-01-01T17:45:55;18.60;99.90
26964;DHT22;14521;48.148;-1.656;2023-01-01T17:49:17;18.60;99.90
26964;DHT22;14521;48.148;-1.656;2023-01-01T17:52:39;18.70;99.90
26964;DHT22;14521;48.148;-1.656;2023-01-01T17:56:02;18.60;99.90
26964;DHT22;14521;48.148;-1.656;2023-01-01T17:59:24;18.70;99.90
26964;DHT22;14521;48.148;-1.656;2023-01-01T18:02:46;18.70;99.90
26964;DHT22;14521;48.148;-1.656;2023-01-01T18:06:08;18.70;99.90
26964;DHT22;14521;48.148;-1.656;2023-01-01T18:09:30;18.70;99.90
26964;DHT22;14521;48.148;-1.656;2023-01-01T18:12:54;18.80;99.90
26964;DHT22;14521;48.148;-1.656;2023-01-01T18:16:16;18.80;99.90
26964;DHT22;14521;48.148;-1.656;2023-01-01T18:19:39;18.80;99.90
26964;DHT22;14521;48.148;-1.656;2023-01-01T18:23:01;18.90;99.90
26964;DHT22;14521;48.148;-1.656;2023-01-01T18:26:25;19.00;99.90
26964;DHT22;14521;48.148;-1.656;2023-01-01T18:29:47;19.00;99.90
26964;DHT22;14521;48.148;-1.656;2023-01-01T18:33:10;19.00;99.90
26964;DHT22;14521;48.148;-1.656;2023-01-01T18:36:33;19.10;99.90
26964;DHT22;14521;48.148;-1.656;2023-01-01T18:39:57;19.10;99.90
26964;DHT22;14521;48.148;-1.656;2023-01-01T18:43:21;19.20;99.90
26964;DHT22;14521;48.148;-1.656;2023-01-01T18:50:18;19.20;99.90
26964;DHT22;14521;48.148;-1.656;2023-01-01T18:53:44;19.20;99.90
26964;DHT22;14521;48.148;-1.656;2023-01-01T18:57:15;19.20;99.90
26964;DHT22;14521;48.148;-1.656;2023-01-01T19:00:46;19.20;99.90
26964;DHT22;14521;48.148;-1.656;2023-01-01T19:04:11;19.20;99.90
26964;DHT22;14521;48.148;-1.656;2023-01-01T19:07:33;19.20;99.90
26964;DHT22;14521;48.148;-1.656;2023-01-01T19:10:59;19.30;99.90
26964;DHT22;14521;48.148;-1.656;2023-01-01T19:14:23;19.50;99.90
26964;DHT22;14521;48.148;-1.656;2023-01-01T19:17:46;19.50;99.90
26964;DHT22;14521;48.148;-1.656;2023-01-01T19:24:34;19.40;99.90
26964;DHT22;14521;48.148;-1.656;2023-01-01T19:28:00;19.30;99.90
26964;DHT22;14521;48.148;-1.656;2023-01-01T19:31:32;19.20;99.90
26964;DHT22;14521;48.148;-1.656;2023-01-01T19:34:54;19.20;99.90
26964;DHT22;14521;48.148;-1.656;2023-01-01T19:38:17;19.20;99.90
26964;DHT22;14521;48.148;-1.656;2023-01-01T19:41:39;19.10;99.90
26964;DHT22;14521;48.148;-1.656;2023-01-01T19:45:01;19.10;99.90
26964;DHT22;14521;48.148;-1.656;2023-01-01T19:48:24;19.10;99.90
26964;DHT22;14521;48.148;-1.656;2023-01-01T19:51:46;19.10;99.90
26964;DHT22;14521;48.148;-1.656;2023-01-01T19:55:09;19.10;99.90
26964;DHT22;14521;48.148;-1.656;2023-01-01T19:58:31;19.00;99.90
26964;DHT22;14521;48.148;-1.656;2023-01-01T20:01:53;19.10;99.90
26964;DHT22;14521;48.148;-1.656;2023-01-01T20:05:35;19.10;99.90
26964;DHT22;14521;48.148;-1.656;2023-01-01T20:08:58;19.10;99.90
26964;DHT22;14521;48.148;-1.656;2023-01-01T20:12:20;19.10;99.90
26964;DHT22;14521;48.148;-1.656;2023-01-01T20:15:42;19.10;99.90
26964;DHT22;14521;48.148;-1.656;2023-01-01T20:19:07;19.10;99.90
26964;DHT22;14521;48.148;-1.656;2023-01-01T20:22:30;19.10;99.90
26964;DHT22;14521;48.148;-1.656;2023-01-01T20:25:52;19.10;99.90
26964;DHT22;14521;48.148;-1.656;2023-01-01T20:29:15;19.10;99.90
26964;DHT22;14521;48.148;-1.656;2023-01-01T20:32:40;19.20;99.90
26964;DHT22;14521;48.148;-1.656;2023-01-01T20:36:03;19.10;99.90
26964;DHT22;14521;48.148;-1.656;2023-01-01T20:39:44;19.10;99.90
26964;DHT22;14521;48.148;-1.656;2023-01-01T20:43:06;19.10;99.90
26964;DHT22;14521;48.148;-1.656;2023-01-01T20:46:28;19.10;99.90
26964;DHT22;14521;48.148;-1.656;2023-01-01T20:49:51;19.10;99.90
26964;DHT22;14521;48.148;-1.656;2023-01-01T20:53:13;19.10;99.90
26964;DHT22;14521;48.148;-1.656;2023-01-01T20:56:35;19.00;99.90
26964;DHT22;14521;48.148;-1.656;2023-01-01T20:59:57;18.90;99.90
26964;DHT22;14521;48.148;-1.656;2023-01-01T21:03:19;18.90;99.90
26964;DHT22;14521;48.148;-1.656;2023-01-01T21:06:42;18.80;99.90
26964;DHT22;14521;48.148;-1.656;2023-01-01T21:10:04;18.80;99.90
26964;DHT22;14521;48.148;-1.656;2023-01-01T21:13:27;18.80;99.90
26964;DHT22;14521;48.148;-1.656;2023-01-01T21:16:49;18.80;99.90
26964;DHT22;14521;48.148;-1.656;2023-01-01T21:20:12;18.80;99.90
26964;DHT22;14521;48.148;-1.656;2023-01-01T21:23:34;18.80;99.90
26964;DHT22;14521;48.148;-1.656;2023-01-01T21:27:40;18.80;99.90
26964;DHT22;14521;48.148;-1.656;2023-01-01T21:30:49;18.90;99.90
26964;DHT22;14521;48.148;-1.656;2023-01-01T21:34:21;18.90;99.90
26964;DHT22;14521;48.148;-1.656;2023-01-01T21:37:44;18.90;99.90
26964;DHT22;14521;48.148;-1.656;2023-01-01T21:44:40;18.90;99.90
26964;DHT22;14521;48.148;-1.656;2023-01-01T21:51:41;18.90;99.90
26964;DHT22;14521;48.148;-1.656;2023-01-01T21:55:15;18.80;99.90
26964;DHT22;14521;48.148;-1.656;2023-01-01T21:58:41;18.90;99.90
26964;DHT22;14521;48.148;-1.656;2023-01-01T22:02:29;18.80;99.90
26964;DHT22;14521;48.148;-1.656;2023-01-01T22:05:53;18.80;99.90
26964;DHT22;14521;48.148;-1.656;2023-01-01T22:09:21;18.80;99.90
26964;DHT22;14521;48.148;-1.656;2023-01-01T22:12:44;18.80;99.90
26964;DHT22;14521;48.148;-1.656;2023-01-01T22:16:08;18.80;99.90
26964;DHT22;14521;48.148;-1.656;2023-01-01T22:19:31;18.80;99.90
26964;DHT22;14521;48.148;-1.656;2023-01-01T22:22:58;18.80;99.90
26964;DHT22;14521;48.148;-1.656;2023-01-01T22:26:26;18.80;99.90
26964;DHT22;14521;48.148;-1.656;2023-01-01T22:29:49;18.70;99.90
26964;DHT22;14521;48.148;-1.656;2023-01-01T22:33:15;18.70;99.90
26964;DHT22;14521;48.148;-1.656;2023-01-01T22:36:38;18.70;99.90
26964;DHT22;14521;48.148;-1.656;2023-01-01T22:40:01;18.70;99.90
26964;DHT22;14521;48.148;-1.656;2023-01-01T22:43:33;18.70;99.90
26964;DHT22;14521;48.148;-1.656;2023-01-01T22:46:57;18.70;99.90
26964;DHT22;14521;48.148;-1.656;2023-01-01T22:50:24;18.80;99.90
26964;DHT22;14521;48.148;-1.656;2023-01-01T22:53:47;18.70;99.90
26964;DHT22;14521;48.148;-1.656;2023-01-01T22:57:10;18.70;99.90
26964;DHT22;14521;48.148;-1.656;2023-01-01T23:00:32;18.70;99.90
26964;DHT22;14521;48.148;-1.656;2023-01-01T23:03:55;18.70;99.90
26964;DHT22;14521;48.148;-1.656;2023-01-01T23:07:17;18.80;99.90
26964;DHT22;14521;48.148;-1.656;2023-01-01T23:10:39;18.70;99.90
26964;DHT22;14521;48.148;-1.656;2023-01-01T23:14:01;18.70;99.90